sensor_id;sensor_type;location;lat;lon;timestamp;temperature;humidity
56268;DHT22;42175;46.930;9.532;2023-04-23T00:01:26;23.40;39.70
56268;DHT22;42175;46.930;9.532;2023-04-23T00:03:55;23.40;39.70
56268;DHT22;42175;46.930;9.532;2023-04-23T00:06:22;23.40;39.70
56268;DHT22;42175;46.930;9.532;2023-04-23T00:08:52;23.40;39.80
56268;DHT22;42175;46.930;9.532;2023-04-23T00:11:18;23.40;39.70
56268;DHT22;42175;46.930;9.532;2023-04-23T00:13:45;23.40;39.70
56268;DHT22;42175;46.930;9.532;2023-04-23T00:16:14;23.40;39.70
56268;DHT22;42175;46.930;9.532;2023-04-23T00:18:40;23.40;39.70
56268;DHT22;42175;46.930;9.532;2023-04-23T00:21:06;23.40;39.70
56268;DHT22;42175;46.930;9.532;2023-04-23T00:23:33;23.40;39.70
56268;DHT22;42175;46.930;9.532;2023-04-23T00:25:58;23.40;39.70
56268;DHT22;42175;46.930;9.532;2023-04-23T00:28:24;23.40;39.70
56268;DHT22;42175;46.930;9.532;2023-04-23T00:30:50;23.40;39.70
56268;DHT22;42175;46.930;9.532;2023-04-23T00:33:16;23.40;39.70
56268;DHT22;42175;46.930;9.532;2023-04-23T00:35:41;23.40;39.70
56268;DHT22;42175;46.930;9.532;2023-04-23T00:38:07;23.40;39.60
56268;DHT22;42175;46.930;9.532;2023-04-23T00:40:33;23.40;39.70
56268;DHT22;42175;46.930;9.532;2023-04-23T00:42:59;23.40;39.70
56268;DHT22;42175;46.930;9.532;2023-04-23T00:45:25;23.40;39.70
56268;DHT22;42175;46.930;9.532;2023-04-23T00:47:52;23.40;39.60
56268;DHT22;42175;46.930;9.532;2023-04-23T00:50:18;23.40;39.70
56268;DHT22;42175;46.930;9.532;2023-04-23T00:52:45;23.40;39.60
56268;DHT22;42175;46.930;9.532;2023-04-23T00:55:11;23.40;39.60
56268;DHT22;42175;46.930;9.532;2023-04-23T00:57:37;23.40;39.60
56268;DHT22;42175;46.930;9.532;2023-04-23T01:00:04;23.40;39.70
56268;DHT22;42175;46.930;9.532;2023-04-23T01:02:30;23.40;39.70
56268;DHT22;42175;46.930;9.532;2023-04-23T01:04:57;23.40;39.80
56268;DHT22;42175;46.930;9.532;2023-04-23T01:07:25;23.30;39.80
56268;DHT22;42175;46.930;9.532;2023-04-23T01:09:51;23.40;39.80
56268;DHT22;42175;46.930;9.532;2023-04-23T01:12:17;23.40;39.80
56268;DHT22;42175;46.930;9.532;2023-04-23T01:14:43;23.40;39.80
56268;DHT22;42175;46.930;9.532;2023-04-23T01:17:10;23.40;39.80
56268;DHT22;42175;46.930;9.532;2023-04-23T01:19:39;23.40;39.80
56268;DHT22;42175;46.930;9.532;2023-04-23T01:22:09;23.40;40.40
56268;DHT22;42175;46.930;9.532;2023-04-23T01:24:35;23.40;39.80
56268;DHT22;42175;46.930;9.532;2023-04-23T01:27:02;23.40;39.90
56268;DHT22;42175;46.930;9.532;2023-04-23T01:29:29;23.40;39.80
56268;DHT22;42175;46.930;9.532;2023-04-23T01:31:56;23.30;39.70
56268;DHT22;42175;46.930;9.532;2023-04-23T01:34:22;23.40;39.80
56268;DHT22;42175;46.930;9.532;2023-04-23T01:36:48;23.40;39.80
56268;DHT22;42175;46.930;9.532;2023-04-23T01:39:15;23.40;39.70
56268;DHT22;42175;46.930;9.532;2023-04-23T01:41:43;23.40;39.80
56268;DHT22;42175;46.930;9.532;2023-04-23T01:44:09;23.40;39.80
56268;DHT22;42175;46.930;9.532;2023-04-23T01:46:35;23.40;39.80
56268;DHT22;42175;46.930;9.532;2023-04-23T01:49:01;23.40;39.80
56268;DHT22;42175;46.930;9.532;2023-04-23T01:51:28;23.40;39.90
56268;DHT22;42175;46.930;9.532;2023-04-23T01:53:54;23.40;39.90
56268;DHT22;42175;46.930;9.532;2023-04-23T01:56:24;23.40;40.00
56268;DHT22;42175;46.930;9.532;2023-04-23T01:58:51;23.30;39.90
56268;DHT22;42175;46.930;9.532;2023-04-23T02:01:17;23.40;39.90
56268;DHT22;42175;46.930;9.532;2023-04-23T02:03:44;23.40;39.90
56268;DHT22;42175;46.930;9.532;2023-04-23T02:06:11;23.40;40.00
56268;DHT22;42175;46.930;9.532;2023-04-23T02:08:37;23.40;40.00
56268;DHT22;42175;46.930;9.532;2023-04-23T02:11:04;23.40;39.90
56268;DHT22;42175;46.930;9.532;2023-04-23T02:13:31;23.40;39.90
56268;DHT22;42175;46.930;9.532;2023-04-23T02:15:57;23.40;39.90
56268;DHT22;42175;46.930;9.532;2023-04-23T02:18:23;23.40;39.90
56268;DHT22;42175;46.930;9.532;2023-04-23T02:20:49;23.40;40.50
56268;DHT22;42175;46.930;9.532;2023-04-23T02:23:14;23.40;39.80
56268;DHT22;42175;46.930;9.532;2023-04-23T02:25:40;23.40;39.90
56268;DHT22;42175;46.930;9.532;2023-04-23T02:28:07;23.40;39.80
56268;DHT22;42175;46.930;9.532;2023-04-23T02:30:36;23.40;39.90
56268;DHT22;42175;46.930;9.532;2023-04-23T02:33:02;23.40;39.90
56268;DHT22;42175;46.930;9.532;2023-04-23T02:35:28;23.40;39.80
56268;DHT22;42175;46.930;9.532;2023-04-23T02:37:55;23.30;39.80
56268;DHT22;42175;46.930;9.532;2023-04-23T02:40:20;23.40;39.80
56268;DHT22;42175;46.930;9.532;2023-04-23T02:42:46;23.40;39.90
56268;DHT22;42175;46.930;9.532;2023-04-23T02:45:12;23.40;39.90
56268;DHT22;42175;46.930;9.532;2023-04-23T02:47:38;23.40;39.90
56268;DHT22;42175;46.930;9.532;2023-04-23T02:50:04;23.40;39.90
56268;DHT22;42175;46.930;9.532;2023-04-23T02:52:31;23.40;39.80
56268;DHT22;42175;46.930;9.532;2023-04-23T02:55:01;23.40;39.90
56268;DHT22;42175;46.930;9.532;2023-04-23T02:57:28;23.40;39.90
56268;DHT22;42175;46.930;9.532;2023-04-23T02:59:54;23.40;39.90
56268;DHT22;42175;46.930;9.532;2023-04-23T03:02:19;23.40;40.00
56268;DHT22;42175;46.930;9.532;2023-04-23T03:04:45;23.40;39.90
56268;DHT22;42175;46.930;9.532;2023-04-23T03:07:11;23.40;40.00
56268;DHT22;42175;46.930;9.532;2023-04-23T03:09:38;23.40;40.00
56268;DHT22;42175;46.930;9.532;2023-04-23T03:12:04;23.30;40.00
56268;DHT22;42175;46.930;9.532;2023-04-23T03:14:29;23.40;40.00
56268;DHT22;42175;46.930;9.532;2023-04-23T03:16:55;23.40;40.10
56268;DHT22;42175;46.930;9.532;2023-04-23T03:19:21;23.40;40.10
56268;DHT22;42175;46.930;9.532;2023-04-23T03:21:46;23.40;40.10
56268;DHT22;42175;46.930;9.532;2023-04-23T03:24:12;23.40;40.10
56268;DHT22;42175;46.930;9.532;2023-04-23T03:26:39;23.30;40.10
56268;DHT22;42175;46.930;9.532;2023-04-23T03:29:05;23.40;40.10
56268;DHT22;42175;46.930;9.532;2023-04-23T03:31:31;23.40;40.70
56268;DHT22;42175;46.930;9.532;2023-04-23T03:33:57;23.40;40.10
56268;DHT22;42175;46.930;9.532;2023-04-23T03:36:23;23.40;40.10
56268;DHT22;42175;46.930;9.532;2023-04-23T03:38:48;23.40;40.10
56268;DHT22;42175;46.930;9.532;2023-04-23T03:41:14;23.40;40.00
56268;DHT22;42175;46.930;9.532;2023-04-23T03:43:40;23.40;40.10
56268;DHT22;42175;46.930;9.532;2023-04-23T03:46:05;23.40;40.10
56268;DHT22;42175;46.930;9.532;2023-04-23T03:48:31;23.40;40.10
56268;DHT22;42175;46.930;9.532;2023-04-23T03:50:57;23.40;40.10
56268;DHT22;42175;46.930;9.532;2023-04-23T03:53:23;23.40;40.10
56268;DHT22;42175;46.930;9.532;2023-04-23T03:55:48;23.40;40.10
56268;DHT22;42175;46.930;9.532;2023-04-23T03:58:14;23.40;40.40
56268;DHT22;42175;46.930;9.532;2023-04-23T04:00:40;23.40;40.20
56268;DHT22;42175;46.930;9.532;2023-04-23T04:03:06;23.40;40.20
56268;DHT22;42175;46.930;9.532;2023-04-23T04:05:33;23.40;40.20
56268;DHT22;42175;46.930;9.532;2023-04-23T04:07:59;23.40;40.20
56268;DHT22;42175;46.930;9.532;2023-04-23T04:10:26;23.40;40.30
56268;DHT22;42175;46.930;9.532;2023-04-23T04:12:52;23.40;40.20
56268;DHT22;42175;46.930;9.532;2023-04-23T04:15:19;23.40;40.20
56268;DHT22;42175;46.930;9.532;2023-04-23T04:17:46;23.40;40.20
56268;DHT22;42175;46.930;9.532;2023-04-23T04:20:12;23.40;40.20
56268;DHT22;42175;46.930;9.532;2023-04-23T04:22:38;23.40;40.20
56268;DHT22;42175;46.930;9.532;2023-04-23T04:25:04;23.30;40.10
56268;DHT22;42175;46.930;9.532;2023-04-23T04:27:31;23.40;40.20
56268;DHT22;42175;46.930;9.532;2023-04-23T04:30:00;23.40;40.20
56268;DHT22;42175;46.930;9.532;2023-04-23T04:32:26;23.40;40.10
56268;DHT22;42175;46.930;9.532;2023-04-23T04:34:52;23.40;40.10
56268;DHT22;42175;46.930;9.532;2023-04-23T04:37:18;23.30;40.20
56268;DHT22;42175;46.930;9.532;2023-04-23T04:39:46;23.40;40.20
56268;DHT22;42175;46.930;9.532;2023-04-23T04:42:11;23.40;40.20
56268;DHT22;42175;46.930;9.532;2023-04-23T04:44:38;23.30;40.20
56268;DHT22;42175;46.930;9.532;2023-04-23T04:47:04;23.40;40.20
56268;DHT22;42175;46.930;9.532;2023-04-23T04:49:31;23.40;40.20
56268;DHT22;42175;46.930;9.532;2023-04-23T04:51:57;23.40;40.20
56268;DHT22;42175;46.930;9.532;2023-04-23T04:54:22;23.30;40.10
56268;DHT22;42175;46.930;9.532;2023-04-23T04:56:48;23.30;40.10
56268;DHT22;42175;46.930;9.532;2023-04-23T04:59:14;23.40;40.20
56268;DHT22;42175;46.930;9.532;2023-04-23T05:01:40;23.30;40.10
56268;DHT22;42175;46.930;9.532;2023-04-23T05:04:06;23.30;40.20
56268;DHT22;42175;46.930;9.532;2023-04-23T05:06:31;23.30;40.20
56268;DHT22;42175;46.930;9.532;2023-04-23T05:08:57;23.30;40.20
56268;DHT22;42175;46.930;9.532;2023-04-23T05:11:23;23.40;40.20
56268;DHT22;42175;46.930;9.532;2023-04-23T05:13:48;23.40;40.20
56268;DHT22;42175;46.930;9.532;2023-04-23T05:16:14;23.40;40.20
56268;DHT22;42175;46.930;9.532;2023-04-23T05:18:40;23.40;40.20
56268;DHT22;42175;46.930;9.532;2023-04-23T05:21:07;23.30;40.20
56268;DHT22;42175;46.930;9.532;2023-04-23T05:23:33;23.30;40.10
56268;DHT22;42175;46.930;9.532;2023-04-23T05:26:00;23.40;40.20
56268;DHT22;42175;46.930;9.532;2023-04-23T05:28:31;23.40;40.20
56268;DHT22;42175;46.930;9.532;2023-04-23T05:30:57;23.40;40.20
56268;DHT22;42175;46.930;9.532;2023-04-23T05:33:23;23.40;40.20
56268;DHT22;42175;46.930;9.532;2023-04-23T05:35:49;23.40;40.30
56268;DHT22;42175;46.930;9.532;2023-04-23T05:38:15;23.40;40.20
56268;DHT22;42175;46.930;9.532;2023-04-23T05:40:40;23.30;40.20
56268;DHT22;42175;46.930;9.532;2023-04-23T05:43:06;23.30;40.10
56268;DHT22;42175;46.930;9.532;2023-04-23T05:45:32;23.40;40.30
56268;DHT22;42175;46.930;9.532;2023-04-23T05:47:57;23.40;40.20
56268;DHT22;42175;46.930;9.532;2023-04-23T05:50:24;23.40;40.20
56268;DHT22;42175;46.930;9.532;2023-04-23T05:52:50;23.30;40.20
56268;DHT22;42175;46.930;9.532;2023-04-23T05:55:16;23.40;40.30
56268;DHT22;42175;46.930;9.532;2023-04-23T05:57:44;23.30;40.20
56268;DHT22;42175;46.930;9.532;2023-04-23T06:00:11;23.30;40.20
56268;DHT22;42175;46.930;9.532;2023-04-23T06:02:37;23.30;40.20
56268;DHT22;42175;46.930;9.532;2023-04-23T06:05:04;23.30;40.20
56268;DHT22;42175;46.930;9.532;2023-04-23T06:07:31;23.40;40.20
56268;DHT22;42175;46.930;9.532;2023-04-23T06:09:56;23.40;40.30
56268;DHT22;42175;46.930;9.532;2023-04-23T06:12:22;23.40;40.30
56268;DHT22;42175;46.930;9.532;2023-04-23T06:14:48;23.40;40.30
56268;DHT22;42175;46.930;9.532;2023-04-23T06:17:13;23.40;40.30
56268;DHT22;42175;46.930;9.532;2023-04-23T06:19:40;23.40;40.30
56268;DHT22;42175;46.930;9.532;2023-04-23T06:22:06;23.30;40.30
56268;DHT22;42175;46.930;9.532;2023-04-23T06:24:32;23.40;40.30
56268;DHT22;42175;46.930;9.532;2023-04-23T06:26:57;23.40;40.30
56268;DHT22;42175;46.930;9.532;2023-04-23T06:29:23;23.40;40.30
56268;DHT22;42175;46.930;9.532;2023-04-23T06:31:49;23.30;40.30
56268;DHT22;42175;46.930;9.532;2023-04-23T06:34:14;23.40;40.40
56268;DHT22;42175;46.930;9.532;2023-04-23T06:36:40;23.40;40.30
56268;DHT22;42175;46.930;9.532;2023-04-23T06:39:08;23.40;40.40
56268;DHT22;42175;46.930;9.532;2023-04-23T06:41:33;23.40;40.40
56268;DHT22;42175;46.930;9.532;2023-04-23T06:43:59;23.30;40.50
56268;DHT22;42175;46.930;9.532;2023-04-23T06:46:24;23.20;41.70
56268;DHT22;42175;46.930;9.532;2023-04-23T06:48:50;23.00;41.80
56268;DHT22;42175;46.930;9.532;2023-04-23T06:51:16;23.10;41.50
56268;DHT22;42175;46.930;9.532;2023-04-23T06:53:41;23.10;41.20
56268;DHT22;42175;46.930;9.532;2023-04-23T06:56:07;23.20;41.20
56268;DHT22;42175;46.930;9.532;2023-04-23T06:58:33;23.20;41.00
56268;DHT22;42175;46.930;9.532;2023-04-23T07:00:59;23.20;40.90
56268;DHT22;42175;46.930;9.532;2023-04-23T07:03:29;23.20;40.90
56268;DHT22;42175;46.930;9.532;2023-04-23T07:05:55;23.30;40.90
56268;DHT22;42175;46.930;9.532;2023-04-23T07:08:21;23.20;41.30
56268;DHT22;42175;46.930;9.532;2023-04-23T07:10:47;23.00;42.60
56268;DHT22;42175;46.930;9.532;2023-04-23T07:13:13;22.80;43.70
56268;DHT22;42175;46.930;9.532;2023-04-23T07:15:38;22.50;43.30
56268;DHT22;42175;46.930;9.532;2023-04-23T07:18:06;22.60;43.50
56268;DHT22;42175;46.930;9.532;2023-04-23T07:20:31;22.50;43.40
56268;DHT22;42175;46.930;9.532;2023-04-23T07:22:58;22.40;43.60
56268;DHT22;42175;46.930;9.532;2023-04-23T07:25:24;22.40;43.20
56268;DHT22;42175;46.930;9.532;2023-04-23T07:27:50;22.40;43.40
56268;DHT22;42175;46.930;9.532;2023-04-23T07:30:16;22.50;43.10
56268;DHT22;42175;46.930;9.532;2023-04-23T07:32:42;22.50;43.00
56268;DHT22;42175;46.930;9.532;2023-04-23T07:35:08;22.70;42.60
56268;DHT22;42175;46.930;9.532;2023-04-23T07:37:35;22.80;42.50
56268;DHT22;42175;46.930;9.532;2023-04-23T07:40:01;22.80;42.30
56268;DHT22;42175;46.930;9.532;2023-04-23T07:42:26;22.80;42.20
56268;DHT22;42175;46.930;9.532;2023-04-23T07:44:52;22.90;42.10
56268;DHT22;42175;46.930;9.532;2023-04-23T07:47:18;22.90;42.00
56268;DHT22;42175;46.930;9.532;2023-04-23T07:49:44;23.00;41.90
56268;DHT22;42175;46.930;9.532;2023-04-23T07:52:09;22.90;41.80
56268;DHT22;42175;46.930;9.532;2023-04-23T07:54:35;23.00;41.90
56268;DHT22;42175;46.930;9.532;2023-04-23T07:57:00;23.00;41.80
56268;DHT22;42175;46.930;9.532;2023-04-23T07:59:28;23.00;41.80
56268;DHT22;42175;46.930;9.532;2023-04-23T08:01:53;23.00;41.80
56268;DHT22;42175;46.930;9.532;2023-04-23T08:04:19;23.00;41.80
56268;DHT22;42175;46.930;9.532;2023-04-23T08:06:45;23.10;41.90
56268;DHT22;42175;46.930;9.532;2023-04-23T08:09:10;23.10;41.60
56268;DHT22;42175;46.930;9.532;2023-04-23T08:11:36;23.10;41.90
56268;DHT22;42175;46.930;9.532;2023-04-23T08:14:02;23.10;41.70
56268;DHT22;42175;46.930;9.532;2023-04-23T08:16:27;23.20;41.80
56268;DHT22;42175;46.930;9.532;2023-04-23T08:18:53;23.10;41.60
56268;DHT22;42175;46.930;9.532;2023-04-23T08:21:19;23.20;42.30
56268;DHT22;42175;46.930;9.532;2023-04-23T08:23:45;23.20;41.60
56268;DHT22;42175;46.930;9.532;2023-04-23T08:26:10;23.20;41.50
56268;DHT22;42175;46.930;9.532;2023-04-23T08:28:36;23.10;41.50
56268;DHT22;42175;46.930;9.532;2023-04-23T08:31:01;23.20;41.80
56268;DHT22;42175;46.930;9.532;2023-04-23T08:33:27;23.20;41.80
56268;DHT22;42175;46.930;9.532;2023-04-23T08:35:53;23.20;41.70
56268;DHT22;42175;46.930;9.532;2023-04-23T08:38:18;23.20;41.60
56268;DHT22;42175;46.930;9.532;2023-04-23T08:40:45;23.20;41.80
56268;DHT22;42175;46.930;9.532;2023-04-23T08:43:19;23.20;41.80
56268;DHT22;42175;46.930;9.532;2023-04-23T08:45:48;23.30;41.70
56268;DHT22;42175;46.930;9.532;2023-04-23T08:48:14;23.20;41.60
56268;DHT22;42175;46.930;9.532;2023-04-23T08:50:43;23.20;41.80
56268;DHT22;42175;46.930;9.532;2023-04-23T08:53:09;23.30;41.70
56268;DHT22;42175;46.930;9.532;2023-04-23T08:55:35;23.20;41.60
56268;DHT22;42175;46.930;9.532;2023-04-23T08:58:01;23.30;41.60
56268;DHT22;42175;46.930;9.532;2023-04-23T09:00:31;23.30;41.70
56268;DHT22;42175;46.930;9.532;2023-04-23T09:02:58;23.30;41.80
56268;DHT22;42175;46.930;9.532;2023-04-23T09:05:25;23.30;41.60
56268;DHT22;42175;46.930;9.532;2023-04-23T09:07:51;23.30;41.60
56268;DHT22;42175;46.930;9.532;2023-04-23T09:10:18;23.30;41.50
56268;DHT22;42175;46.930;9.532;2023-04-23T09:12:44;23.30;42.10
56268;DHT22;42175;46.930;9.532;2023-04-23T09:15:10;23.30;41.90
56268;DHT22;42175;46.930;9.532;2023-04-23T09:17:41;23.30;41.60
56268;DHT22;42175;46.930;9.532;2023-04-23T09:20:08;23.40;41.50
56268;DHT22;42175;46.930;9.532;2023-04-23T09:22:42;23.40;41.40
56268;DHT22;42175;46.930;9.532;2023-04-23T09:25:10;23.40;41.70
56268;DHT22;42175;46.930;9.532;2023-04-23T09:27:36;23.40;41.50
56268;DHT22;42175;46.930;9.532;2023-04-23T09:30:03;23.40;41.50
56268;DHT22;42175;46.930;9.532;2023-04-23T09:32:36;23.40;41.50
56268;DHT22;42175;46.930;9.532;2023-04-23T09:35:03;23.40;41.50
56268;DHT22;42175;46.930;9.532;2023-04-23T09:37:29;23.50;41.70
56268;DHT22;42175;46.930;9.532;2023-04-23T09:40:01;23.50;41.50
56268;DHT22;42175;46.930;9.532;2023-04-23T09:42:29;23.50;41.40
56268;DHT22;42175;46.930;9.532;2023-04-23T09:44:56;23.50;41.30
56268;DHT22;42175;46.930;9.532;2023-04-23T09:47:22;23.50;41.60
56268;DHT22;42175;46.930;9.532;2023-04-23T09:49:49;23.50;41.50
56268;DHT22;42175;46.930;9.532;2023-04-23T09:52:15;23.50;41.60
56268;DHT22;42175;46.930;9.532;2023-04-23T09:54:41;23.40;41.80
56268;DHT22;42175;46.930;9.532;2023-04-23T09:57:07;23.40;41.60
56268;DHT22;42175;46.930;9.532;2023-04-23T09:59:34;23.40;41.50
56268;DHT22;42175;46.930;9.532;2023-04-23T10:02:05;23.40;41.60
56268;DHT22;42175;46.930;9.532;2023-04-23T10:04:32;23.50;41.80
56268;DHT22;42175;46.930;9.532;2023-04-23T10:07:01;23.40;41.60
56268;DHT22;42175;46.930;9.532;2023-04-23T10:09:28;23.50;41.90
56268;DHT22;42175;46.930;9.532;2023-04-23T10:11:56;23.50;42.00
56268;DHT22;42175;46.930;9.532;2023-04-23T10:14:23;23.40;41.80
56268;DHT22;42175;46.930;9.532;2023-04-23T10:16:58;23.50;41.80
56268;DHT22;42175;46.930;9.532;2023-04-23T10:19:24;23.40;41.60
56268;DHT22;42175;46.930;9.532;2023-04-23T10:21:57;23.50;41.90
56268;DHT22;42175;46.930;9.532;2023-04-23T10:24:26;23.50;42.00
56268;DHT22;42175;46.930;9.532;2023-04-23T10:26:59;23.40;41.90
56268;DHT22;42175;46.930;9.532;2023-04-23T10:29:32;23.40;41.90
56268;DHT22;42175;46.930;9.532;2023-04-23T10:32:00;23.50;41.90
56268;DHT22;42175;46.930;9.532;2023-04-23T10:34:27;23.50;42.10
56268;DHT22;42175;46.930;9.532;2023-04-23T10:36:55;23.50;42.00
56268;DHT22;42175;46.930;9.532;2023-04-23T10:39:23;23.50;42.00
56268;DHT22;42175;46.930;9.532;2023-04-23T10:41:49;23.50;41.90
56268;DHT22;42175;46.930;9.532;2023-04-23T10:44:18;23.50;41.90
56268;DHT22;42175;46.930;9.532;2023-04-23T10:46:57;23.50;41.70
56268;DHT22;42175;46.930;9.532;2023-04-23T10:49:23;23.50;41.80
56268;DHT22;42175;46.930;9.532;2023-04-23T10:54:31;23.50;41.70
56268;DHT22;42175;46.930;9.532;2023-04-23T10:57:01;23.50;41.70
56268;DHT22;42175;46.930;9.532;2023-04-23T10:59:28;23.50;41.70
56268;DHT22;42175;46.930;9.532;2023-04-23T11:01:56;23.50;41.50
56268;DHT22;42175;46.930;9.532;2023-04-23T11:04:29;23.50;41.60
56268;DHT22;42175;46.930;9.532;2023-04-23T11:06:57;23.50;41.70
56268;DHT22;42175;46.930;9.532;2023-04-23T11:11:55;23.50;41.60
56268;DHT22;42175;46.930;9.532;2023-04-23T11:16:58;23.50;41.60
56268;DHT22;42175;46.930;9.532;2023-04-23T11:19:24;23.50;41.50
56268;DHT22;42175;46.930;9.532;2023-04-23T11:22:00;23.50;41.50
56268;DHT22;42175;46.930;9.532;2023-04-23T11:26:56;23.50;41.40
56268;DHT22;42175;46.930;9.532;2023-04-23T11:29:24;23.50;41.30
56268;DHT22;42175;46.930;9.532;2023-04-23T11:31:51;23.50;41.20
56268;DHT22;42175;46.930;9.532;2023-04-23T11:34:17;23.50;41.30
56268;DHT22;42175;46.930;9.532;2023-04-23T11:36:45;23.60;41.30
56268;DHT22;42175;46.930;9.532;2023-04-23T11:39:11;23.60;41.30
56268;DHT22;42175;46.930;9.532;2023-04-23T11:41:37;23.50;41.20
56268;DHT22;42175;46.930;9.532;2023-04-23T11:44:03;23.60;41.20
56268;DHT22;42175;46.930;9.532;2023-04-23T11:46:30;23.60;41.20
56268;DHT22;42175;46.930;9.532;2023-04-23T11:48:56;23.60;41.10
56268;DHT22;42175;46.930;9.532;2023-04-23T11:51:26;23.60;41.10
56268;DHT22;42175;46.930;9.532;2023-04-23T11:53:52;23.60;41.00
56268;DHT22;42175;46.930;9.532;2023-04-23T11:56:18;23.60;41.00
56268;DHT22;42175;46.930;9.532;2023-04-23T11:58:58;23.60;41.00
56268;DHT22;42175;46.930;9.532;2023-04-23T12:01:24;23.60;41.00
56268;DHT22;42175;46.930;9.532;2023-04-23T12:03:50;23.60;41.00
56268;DHT22;42175;46.930;9.532;2023-04-23T12:06:17;23.60;41.00
56268;DHT22;42175;46.930;9.532;2023-04-23T12:08:45;23.60;40.90
56268;DHT22;42175;46.930;9.532;2023-04-23T12:11:11;23.60;41.00
56268;DHT22;42175;46.930;9.532;2023-04-23T12:13:39;23.70;41.10
56268;DHT22;42175;46.930;9.532;2023-04-23T12:16:05;23.70;41.10
56268;DHT22;42175;46.930;9.532;2023-04-23T12:18:33;23.70;41.00
56268;DHT22;42175;46.930;9.532;2023-04-23T12:23:36;23.70;41.10
56268;DHT22;42175;46.930;9.532;2023-04-23T12:26:02;23.70;41.10
56268;DHT22;42175;46.930;9.532;2023-04-23T12:28:29;23.70;41.10
56268;DHT22;42175;46.930;9.532;2023-04-23T12:31:01;23.60;41.00
56268;DHT22;42175;46.930;9.532;2023-04-23T12:33:30;23.70;41.00
56268;DHT22;42175;46.930;9.532;2023-04-23T12:35:56;23.70;41.10
56268;DHT22;42175;46.930;9.532;2023-04-23T12:38:29;23.60;41.00
56268;DHT22;42175;46.930;9.532;2023-04-23T12:40:58;23.60;41.00
56268;DHT22;42175;46.930;9.532;2023-04-23T12:43:25;23.60;41.10
56268;DHT22;42175;46.930;9.532;2023-04-23T12:45:53;23.60;41.00
56268;DHT22;42175;46.930;9.532;2023-04-23T12:48:19;23.60;41.00
56268;DHT22;42175;46.930;9.532;2023-04-23T12:50:46;23.60;41.00
56268;DHT22;42175;46.930;9.532;2023-04-23T12:53:13;23.70;40.90
56268;DHT22;42175;46.930;9.532;2023-04-23T12:55:39;23.70;40.90
56268;DHT22;42175;46.930;9.532;2023-04-23T12:58:05;23.70;40.80
56268;DHT22;42175;46.930;9.532;2023-04-23T13:00:32;23.70;40.70
56268;DHT22;42175;46.930;9.532;2023-04-23T13:02:57;23.70;40.60
56268;DHT22;42175;46.930;9.532;2023-04-23T13:05:23;23.70;41.30
56268;DHT22;42175;46.930;9.532;2023-04-23T13:07:48;23.70;40.70
56268;DHT22;42175;46.930;9.532;2023-04-23T13:10:14;23.70;40.80
56268;DHT22;42175;46.930;9.532;2023-04-23T13:12:41;23.70;40.80
56268;DHT22;42175;46.930;9.532;2023-04-23T13:15:08;23.70;40.70
56268;DHT22;42175;46.930;9.532;2023-04-23T13:17:36;23.70;40.70
56268;DHT22;42175;46.930;9.532;2023-04-23T13:20:02;23.70;38.80
56268;DHT22;42175;46.930;9.532;2023-04-23T13:22:29;23.70;37.30
56268;DHT22;42175;46.930;9.532;2023-04-23T13:24:56;23.60;36.00
56268;DHT22;42175;46.930;9.532;2023-04-23T13:27:24;23.60;35.40
56268;DHT22;42175;46.930;9.532;2023-04-23T13:29:50;23.50;34.60
56268;DHT22;42175;46.930;9.532;2023-04-23T13:32:16;23.60;34.20
56268;DHT22;42175;46.930;9.532;2023-04-23T13:34:42;23.50;35.50
56268;DHT22;42175;46.930;9.532;2023-04-23T13:37:08;23.50;34.30
56268;DHT22;42175;46.930;9.532;2023-04-23T13:39:36;23.50;34.20
56268;DHT22;42175;46.930;9.532;2023-04-23T13:42:02;23.50;33.40
56268;DHT22;42175;46.930;9.532;2023-04-23T13:44:32;23.50;33.50
56268;DHT22;42175;46.930;9.532;2023-04-23T13:46:57;23.50;33.40
56268;DHT22;42175;46.930;9.532;2023-04-23T13:49:26;23.30;34.50
56268;DHT22;42175;46.930;9.532;2023-04-23T13:51:53;23.30;33.30
56268;DHT22;42175;46.930;9.532;2023-04-23T13:54:23;23.30;34.60
56268;DHT22;42175;46.930;9.532;2023-04-23T13:56:54;23.30;33.90
56268;DHT22;42175;46.930;9.532;2023-04-23T13:59:20;23.30;34.00
56268;DHT22;42175;46.930;9.532;2023-04-23T14:01:46;23.30;33.30
56268;DHT22;42175;46.930;9.532;2023-04-23T14:04:15;23.20;33.20
56268;DHT22;42175;46.930;9.532;2023-04-23T14:06:41;23.20;33.80
56268;DHT22;42175;46.930;9.532;2023-04-23T14:09:07;23.20;33.30
56268;DHT22;42175;46.930;9.532;2023-04-23T14:11:33;23.20;33.80
56268;DHT22;42175;46.930;9.532;2023-04-23T14:13:59;23.20;33.70
56268;DHT22;42175;46.930;9.532;2023-04-23T14:16:25;23.20;34.00
56268;DHT22;42175;46.930;9.532;2023-04-23T14:18:51;23.30;33.90
56268;DHT22;42175;46.930;9.532;2023-04-23T14:21:17;23.20;33.80
56268;DHT22;42175;46.930;9.532;2023-04-23T14:23:54;23.20;33.80
56268;DHT22;42175;46.930;9.532;2023-04-23T14:26:38;23.20;34.20
56268;DHT22;42175;46.930;9.532;2023-04-23T14:32:02;23.10;34.90
56268;DHT22;42175;46.930;9.532;2023-04-23T14:34:28;23.10;34.80
56268;DHT22;42175;46.930;9.532;2023-04-23T14:36:54;23.10;35.30
56268;DHT22;42175;46.930;9.532;2023-04-23T14:39:22;23.10;34.30
56268;DHT22;42175;46.930;9.532;2023-04-23T14:41:50;23.00;34.40
56268;DHT22;42175;46.930;9.532;2023-04-23T14:44:15;23.00;34.60
56268;DHT22;42175;46.930;9.532;2023-04-23T14:46:41;23.10;34.10
56268;DHT22;42175;46.930;9.532;2023-04-23T14:49:07;23.10;34.40
56268;DHT22;42175;46.930;9.532;2023-04-23T14:51:33;23.10;34.20
56268;DHT22;42175;46.930;9.532;2023-04-23T14:53:58;23.10;33.90
56268;DHT22;42175;46.930;9.532;2023-04-23T14:56:24;23.10;34.10
56268;DHT22;42175;46.930;9.532;2023-04-23T14:58:51;23.00;33.90
56268;DHT22;42175;46.930;9.532;2023-04-23T15:01:17;23.00;33.40
56268;DHT22;42175;46.930;9.532;2023-04-23T15:03:43;22.90;33.80
56268;DHT22;42175;46.930;9.532;2023-04-23T15:06:09;22.90;33.50
56268;DHT22;42175;46.930;9.532;2023-04-23T15:08:35;22.90;33.40
56268;DHT22;42175;46.930;9.532;2023-04-23T15:11:01;22.90;33.10
56268;DHT22;42175;46.930;9.532;2023-04-23T15:16:28;22.90;33.60
56268;DHT22;42175;46.930;9.532;2023-04-23T15:19:01;23.00;33.60
56268;DHT22;42175;46.930;9.532;2023-04-23T15:21:27;22.90;33.50
56268;DHT22;42175;46.930;9.532;2023-04-23T15:23:53;22.90;33.30
56268;DHT22;42175;46.930;9.532;2023-04-23T15:26:20;22.90;33.50
56268;DHT22;42175;46.930;9.532;2023-04-23T15:28:46;22.90;33.80
56268;DHT22;42175;46.930;9.532;2023-04-23T15:31:12;22.90;33.10
56268;DHT22;42175;46.930;9.532;2023-04-23T15:33:38;22.90;34.00
56268;DHT22;42175;46.930;9.532;2023-04-23T15:36:04;22.90;33.40
56268;DHT22;42175;46.930;9.532;2023-04-23T15:38:29;22.90;33.60
56268;DHT22;42175;46.930;9.532;2023-04-23T15:40:55;23.00;34.40
56268;DHT22;42175;46.930;9.532;2023-04-23T15:43:21;23.00;35.10
56268;DHT22;42175;46.930;9.532;2023-04-23T15:45:47;23.10;35.50